| time (UTC) | temp C | wind direction | speed KPH | gust KPH | rain 1hr cm | rain 24hr cm | rain mn cm | humidity % | barometer mb |
| 20260507103617 | 6 | 248 | 3.2 | 6.4 | 0.00 | 0.00 | 0.00 | 80 | 1013.9 |
| 20260507102617 | 6 | 248 | 8.0 | 14.5 | 0.00 | 0.00 | 0.00 | 81 | 1014.0 |
| 20260507101617 | 6 | 225 | 4.8 | 8.0 | 0.00 | 0.00 | 0.00 | 81 | 1014.0 |
| 20260507100617 | 6 | 248 | 1.6 | 11.3 | 0.00 | 0.00 | 0.00 | 81 | 1014.0 |
| 20260507095617 | 6 | 248 | 8.0 | 19.3 | 0.00 | 0.00 | 0.00 | 81 | 1014.2 |
| 20260507094618 | 6 | 203 | 3.2 | 4.8 | 0.00 | 0.00 | 0.00 | 81 | 1014.3 |
| 20260507093617 | 6 | 158 | 3.2 | 6.4 | 0.00 | 0.00 | 0.00 | 82 | 1014.2 |
| 20260507092617 | 6 | 248 | 6.4 | 11.3 | 0.00 | 0.00 | 0.00 | 82 | 1014.1 |
| 20260507091617 | 6 | 248 | 8.0 | 11.3 | 0.00 | 0.00 | 0.00 | 82 | 1014.3 |
| 20260507090617 | 6 | 135 | 3.2 | 6.4 | 0.00 | 0.00 | 0.00 | 81 | 1014.3 |
| 20260507085617 | 6 | 248 | 4.8 | 9.7 | 0.00 | 0.00 | 0.00 | 81 | 1014.4 |
| 20260507084616 | 6 | 225 | 6.4 | 12.9 | 0.00 | 0.00 | 0.00 | 80 | 1014.3 |
| 20260507083617 | 7 | 225 | 8.0 | 12.9 | 0.00 | 0.00 | 0.00 | 80 | 1014.5 |
| 20260507082617 | 7 | 248 | 4.8 | 9.7 | 0.00 | 0.00 | 0.00 | 80 | 1014.8 |
| 20260507081637 | 7 | 203 | 6.4 | 9.7 | 0.00 | 0.00 | 0.00 | 79 | 1014.9 |
| 20260507080617 | 7 | 270 | 6.4 | 16.1 | 0.00 | 0.00 | 0.00 | 79 | 1015.0 |
| 20260507075617 | 7 | 225 | 4.8 | 12.9 | 0.00 | 0.00 | 0.00 | 79 | 1015.1 |
| 20260507074617 | 7 | 225 | 8.0 | 16.1 | 0.00 | 0.00 | 0.00 | 79 | 1015.3 |
| 20260507073616 | 7 | 225 | 3.2 | 8.0 | 0.00 | 0.00 | 0.00 | 79 | 1015.6 |
| 20260507072617 | 7 | 225 | 9.7 | 16.1 | 0.00 | 0.00 | 0.00 | 79 | 1015.9 |
| 20260507071616 | 7 | 248 | 3.2 | 6.4 | 0.00 | 0.00 | 0.00 | 79 | 1015.9 |
| 20260507070616 | 7 | 203 | 6.4 | 16.1 | 0.00 | 0.00 | 0.00 | 78 | 1016.0 |
| 20260507065636 | 7 | 225 | 4.8 | 11.3 | 0.00 | 0.00 | 0.00 | 78 | 1016.2 |
| 20260507064616 | 7 | 248 | 6.4 | 8.0 | 0.00 | 0.00 | 0.00 | 77 | 1016.2 |
| 20260507063636 | 7 | 248 | 8.0 | 16.1 | 0.00 | 0.00 | 0.00 | 76 | 1016.3 |
| 20260507062616 | 7 | 248 | 6.4 | 9.7 | 0.00 | 0.00 | 0.00 | 75 | 1016.4 |
| 20260507061616 | 8 | 225 | 8.0 | 12.9 | 0.00 | 0.00 | 0.00 | 74 | 1016.3 |
| 20260507060636 | 8 | 225 | 8.0 | 11.3 | 0.00 | 0.00 | 0.00 | 72 | 1016.5 |
| 20260507055617 | 8 | 225 | 9.7 | 17.7 | 0.00 | 0.00 | 0.00 | 70 | 1016.5 |
| 20260507054616 | 8 | 203 | 6.4 | 12.9 | 0.00 | 0.00 | 0.00 | 69 | 1016.7 |
| 20260507053616 | 8 | 225 | 6.4 | 16.1 | 0.00 | 0.00 | 0.00 | 67 | 1016.6 |
| 20260507052616 | 8 | 225 | 6.4 | 14.5 | 0.00 | 0.00 | 0.00 | 66 | 1016.7 |
| 20260507051616 | 8 | 203 | 9.7 | 19.3 | 0.00 | 0.00 | 0.00 | 67 | 1016.8 |
| 20260507050616 | 8 | 270 | 4.8 | 12.9 | 0.00 | 0.00 | 0.00 | 67 | 1016.8 |
| 20260507045615 | 8 | 248 | 4.8 | 9.7 | 0.00 | 0.00 | 0.00 | 66 | 1016.9 |
| 20260507044617 | 9 | 225 | 4.8 | 9.7 | 0.00 | 0.00 | 0.00 | 65 | 1017.0 |
| 20260507043617 | 9 | 248 | 4.8 | 8.0 | 0.00 | 0.00 | 0.00 | 64 | 1017.1 |
| 20260507042617 | 10 | 270 | 9.7 | 17.7 | 0.00 | 0.00 | 0.00 | 63 | 1017.2 |
| 20260507041617 | 10 | 225 | 6.4 | 11.3 | 0.00 | 0.00 | 0.00 | 64 | 1017.3 |
| 20260507040617 | 10 | 225 | 9.7 | 16.1 | 0.00 | 0.00 | 0.00 | 64 | 1017.3 |
| 20260507035617 | 10 | 248 | 8.0 | 17.7 | 0.00 | 0.00 | 0.00 | 64 | 1017.4 |
| 20260507034617 | 10 | 248 | 3.2 | 11.3 | 0.00 | 0.00 | 0.00 | 63 | 1017.4 |
| 20260507033657 | 10 | 225 | 6.4 | 11.3 | 0.00 | 0.00 | 0.00 | 63 | 1017.6 |
| 20260507032637 | 10 | 248 | 8.0 | 14.5 | 0.00 | 0.00 | 0.00 | 62 | 1017.6 |
| 20260507031617 | 10 | 225 | 6.4 | 14.5 | 0.00 | 0.00 | 0.00 | 61 | 1017.4 |
| 20260507030617 | 11 | 248 | 4.8 | 8.0 | 0.00 | 0.00 | 0.00 | 60 | 1017.6 |
| 20260507025637 | 11 | 225 | 6.4 | 12.9 | 0.00 | 0.00 | 0.00 | 59 | 1017.6 |
| 20260507024617 | 11 | 225 | 9.7 | 16.1 | 0.00 | 0.00 | 0.00 | 58 | 1017.3 |
| 20260507023617 | 11 | 225 | 6.4 | 9.7 | 0.00 | 0.00 | 0.00 | 56 | 1017.3 |
| 20260507022617 | 11 | 225 | 4.8 | 8.0 | 0.00 | 0.00 | 0.00 | 52 | 1017.2 |
| 20260507021617 | 12 | 270 | 4.8 | 9.7 | 0.00 | 0.00 | 0.00 | 51 | 1017.1 |
| 20260507020617 | 12 | 203 | 1.6 | 4.8 | 0.00 | 0.00 | 0.00 | 50 | 1017.0 |
| 20260507015617 | 12 | 248 | 4.8 | 9.7 | 0.00 | 0.00 | 0.00 | 50 | 1017.1 |
| 20260507014617 | 12 | 225 | 9.7 | 12.9 | 0.00 | 0.00 | 0.00 | 50 | 1017.0 |
| 20260507013617 | 12 | 248 | 3.2 | 6.4 | 0.00 | 0.00 | 0.00 | 48 | 1017.0 |
| 20260507012617 | 13 | 270 | 3.2 | 6.4 | 0.00 | 0.00 | 0.00 | 46 | 1017.0 |
| 20260507011617 | 13 | 270 | 3.2 | 8.0 | 0.00 | 0.00 | 0.00 | 45 | 1017.0 |
| 20260507010617 | 13 | 248 | 8.0 | 12.9 | 0.00 | 0.00 | 0.00 | 44 | 1016.9 |
| 20260507005617 | 14 | 270 | 9.7 | 12.9 | 0.00 | 0.00 | 0.00 | 43 | 1017.2 |
| 20260507004637 | 15 | 248 | 6.4 | 9.7 | 0.00 | 0.00 | 0.00 | 41 | 1017.1 |
| 20260507003617 | 15 | 270 | 6.4 | 12.9 | 0.00 | 0.00 | 0.00 | 39 | 1017.1 |
| 20260507002617 | 15 | 248 | 1.6 | 6.4 | 0.00 | 0.00 | 0.00 | 38 | 1017.1 |
| 20260507001616 | 15 | 315 | 3.2 | 9.7 | 0.00 | 0.00 | 0.00 | 37 | 1017.1 |
| 20260507000617 | 15 | 270 | 3.2 | 8.0 | 0.00 | 0.00 | 0.00 | 37 | 1017.3 |
| 20260506235616 | 15 | 293 | 9.7 | 14.5 | 0.00 | 0.00 | 0.00 | 36 | 1017.4 |
| 20260506234616 | 15 | 270 | 4.8 | 11.3 | 0.00 | 0.00 | 0.00 | 36 | 1017.2 |
| 20260506233617 | 14 | 315 | 4.8 | 8.0 | 0.00 | 0.00 | 0.00 | 36 | 1017.4 |
| 20260506232617 | 14 | 293 | 4.8 | 9.7 | 0.00 | 0.00 | 0.00 | 36 | 1017.5 |
| 20260506231616 | 15 | 293 | 4.8 | 9.7 | 0.00 | 0.00 | 0.00 | 36 | 1017.3 |
| 20260506230617 | 15 | 315 | 8.0 | 12.9 | 0.00 | 0.00 | 0.00 | 34 | 1017.5 |
| 20260506225617 | 15 | 315 | 12.9 | 17.7 | 0.00 | 0.00 | 0.00 | 34 | 1017.5 |
| 20260506224617 | 15 | 248 | 3.2 | 9.7 | 0.00 | 0.00 | 0.00 | 35 | 1017.6 |
| 20260506223617 | 15 | 248 | 6.4 | 11.3 | 0.00 | 0.00 | 0.00 | 34 | 1017.7 |
| 20260506222616 | 15 | 293 | 8.0 | 17.7 | 0.00 | 0.00 | 0.00 | 35 | 1017.7 |
| 20260506221616 | 15 | 315 | 3.2 | 8.0 | 0.00 | 0.00 | 0.00 | 36 | 1017.8 |
| 20260506220616 | 15 | 293 | 8.0 | 19.3 | 0.00 | 0.00 | 0.00 | 35 | 1017.9 |
| 20260506215617 | 15 | 315 | 4.8 | 11.3 | 0.00 | 0.00 | 0.00 | 36 | 1018.0 |
| 20260506214616 | 15 | 90 | 1.6 | 6.4 | 0.00 | 0.00 | 0.00 | 36 | 1017.9 |
| 20260506213616 | 14 | 315 | 8.0 | 12.9 | 0.00 | 0.00 | 0.00 | 36 | 1018.2 |
| 20260506212616 | 14 | 315 | 9.7 | 14.5 | 0.00 | 0.00 | 0.00 | 36 | 1018.3 |
| 20260506211616 | 14 | 293 | 4.8 | 8.0 | 0.00 | 0.00 | 0.00 | 37 | 1018.4 |
| 20260506210616 | 14 | 338 | 6.4 | 9.7 | 0.00 | 0.00 | 0.00 | 35 | 1018.6 |
| 20260506205616 | 13 | 315 | 8.0 | 14.5 | 0.00 | 0.00 | 0.00 | 36 | 1018.7 |
| 20260506204616 | 14 | 315 | 9.7 | 14.5 | 0.00 | 0.00 | 0.00 | 38 | 1019.0 |
| 20260506203616 | 13 | 315 | 6.4 | 9.7 | 0.00 | 0.00 | 0.00 | 36 | 1019.0 |
| 20260506202636 | 14 | 248 | 6.4 | 11.3 | 0.00 | 0.00 | 0.00 | 35 | 1019.1 |
| 20260506201616 | 13 | 293 | 6.4 | 11.3 | 0.00 | 0.00 | 0.00 | 38 | 1019.3 |
| 20260506200616 | 13 | 293 | 4.8 | 11.3 | 0.00 | 0.00 | 0.00 | 37 | 1019.3 |
| 20260506195616 | 14 | 293 | 6.4 | 11.3 | 0.00 | 0.00 | 0.00 | 38 | 1019.6 |
| 20260506194616 | 13 | 315 | 12.9 | 19.3 | 0.00 | 0.00 | 0.00 | 36 | 1019.6 |
| 20260506193616 | 13 | 315 | 8.0 | 14.5 | 0.00 | 0.00 | 0.00 | 37 | 1019.7 |
| 20260506192616 | 13 | 315 | 12.9 | 24.1 | 0.00 | 0.00 | 0.00 | 38 | 1019.8 |
| 20260506191616 | 13 | 315 | 6.4 | 11.3 | 0.00 | 0.00 | 0.00 | 38 | 1019.9 |
| 20260506190636 | 13 | 315 | 3.2 | 9.7 | 0.00 | 0.00 | 0.00 | 41 | 1019.9 |
| 20260506185616 | 12 | 315 | 4.8 | 9.7 | 0.00 | 0.00 | 0.00 | 39 | 1020.1 |
| 20260506184616 | 12 | 315 | 12.9 | 19.3 | 0.00 | 0.00 | 0.00 | 39 | 1020.1 |
| 20260506183616 | 12 | 270 | 4.8 | 8.0 | 0.00 | 0.00 | 0.00 | 40 | 1020.3 |
| 20260506182616 | 12 | 293 | 3.2 | 4.8 | 0.00 | 0.00 | 0.00 | 41 | 1020.4 |
| 20260506181616 | 12 | 315 | 11.3 | 14.5 | 0.00 | 0.00 | 0.00 | 40 | 1020.5 |
| 20260506180616 | 12 | 293 | 4.8 | 22.5 | 0.00 | 0.00 | 0.00 | 41 | 1020.6 |
| 20260506175616 | 12 | 315 | 12.9 | 20.9 | 0.00 | 0.00 | 0.00 | 41 | 1020.6 |
| 20260506174616 | 12 | 315 | 4.8 | 12.9 | 0.00 | 0.00 | 0.00 | 40 | 1020.8 |
| 20260506173616 | 12 | 270 | 8.0 | 17.7 | 0.00 | 0.00 | 0.00 | 42 | 1020.9 |
| 20260506172636 | 11 | 293 | 3.2 | 6.4 | 0.00 | 0.00 | 0.00 | 43 | 1020.9 |
| 20260506171636 | 11 | 338 | 4.8 | 9.7 | 0.00 | 0.00 | 0.00 | 41 | 1021.0 |
| 20260506170616 | 11 | 270 | 1.6 | 6.4 | 0.00 | 0.00 | 0.00 | 45 | 1021.0 |
| 20260506165616 | 11 | 315 | 4.8 | 6.4 | 0.00 | 0.00 | 0.00 | 42 | 1020.9 |
| 20260506164616 | 12 | 315 | 6.4 | 9.7 | 0.00 | 0.00 | 0.00 | 41 | 1021.1 |
| 20260506163616 | 11 | 270 | 4.8 | 12.9 | 0.00 | 0.00 | 0.00 | 42 | 1021.1 |
| 20260506162616 | 12 | 315 | 4.8 | 9.7 | 0.00 | 0.00 | 0.00 | 39 | 1021.3 |
| 20260506161615 | 11 | 315 | 4.8 | 9.7 | 0.00 | 0.00 | 0.00 | 40 | 1021.4 |
| 20260506160616 | 11 | 338 | 4.8 | 12.9 | 0.00 | 0.00 | 0.00 | 43 | 1021.2 |
| 20260506155616 | 10 | 315 | 3.2 | 6.4 | 0.00 | 0.00 | 0.00 | 40 | 1021.3 |
| 20260506154615 | 11 | 293 | 6.4 | 12.9 | 0.00 | 0.00 | 0.00 | 44 | 1021.3 |
| 20260506153616 | 10 | 270 | 1.6 | 3.2 | 0.00 | 0.00 | 0.00 | 44 | 1021.2 |
| 20260506152615 | 10 | 338 | 1.6 | 4.8 | 0.00 | 0.00 | 0.00 | 43 | 1021.2 |
| 20260506151636 | 10 | 315 | 4.8 | 12.9 | 0.00 | 0.00 | 0.00 | 45 | 1021.1 |
| 20260506150636 | 10 | 315 | 8.0 | 12.9 | 0.00 | 0.00 | 0.00 | 45 | 1021.1 |
| 20260506145616 | 10 | 315 | 1.6 | 3.2 | 0.00 | 0.00 | 0.00 | 44 | 1021.1 |
| 20260506144616 | 10 | 293 | 1.6 | 4.8 | 0.00 | 0.00 | 0.00 | 44 | 1021.1 |
| 20260506143616 | 9 | 315 | 4.8 | 6.4 | 0.00 | 0.00 | 0.00 | 46 | 1021.1 |
| 20260506142616 | 9 | 315 | 1.6 | 3.2 | 0.00 | 0.00 | 0.00 | 47 | 1021.1 |
| 20260506141615 | 8 | 293 | 1.6 | 3.2 | 0.00 | 0.00 | 0.00 | 51 | 1020.9 |
| 20260506140615 | 8 | 315 | 1.6 | 3.2 | 0.00 | 0.00 | 0.00 | 52 | 1020.9 |
| 20260506135615 | 8 | 293 | 1.6 | 3.2 | 0.00 | 0.00 | 0.00 | 54 | 1020.9 |
| 20260506134616 | 8 | 0.0 | 1.6 | 0.00 | 0.00 | 0.00 | 54 | 1020.9 | |
| 20260506133616 | 7 | 0.0 | 0.0 | 0.00 | 0.00 | 0.00 | 56 | 1020.8 | |
| 20260506132615 | 7 | 315 | 3.2 | 4.8 | 0.00 | 0.00 | 0.00 | 57 | 1020.7 |
| 20260506131615 | 7 | 0.0 | 1.6 | 0.00 | 0.00 | 0.00 | 59 | 1020.5 | |
| 20260506130615 | 6 | 293 | 1.6 | 1.6 | 0.00 | 0.00 | 0.00 | 62 | 1020.3 |
| 20260506125635 | 6 | 293 | 1.6 | 3.2 | 0.00 | 0.00 | 0.00 | 60 | 1020.1 |
| 20260506124615 | 6 | 315 | 3.2 | 4.8 | 0.00 | 0.00 | 0.00 | 61 | 1020.1 |
| 20260506123635 | 6 | 0.0 | 1.6 | 0.00 | 0.00 | 0.00 | 63 | 1019.9 | |
| 20260506122615 | 6 | 293 | 1.6 | 3.2 | 0.00 | 0.00 | 0.00 | 61 | 1019.8 |
| 20260506121615 | 6 | 0.0 | 1.6 | 0.00 | 0.00 | 0.00 | 62 | 1019.7 | |
| 20260506120618 | 5 | 0.0 | 1.6 | 0.00 | 0.00 | 0.00 | 63 | 1019.7 | |
| 20260506115615 | 5 | 0.0 | 0.0 | 0.00 | 0.00 | 0.00 | 65 | 1019.5 | |
| 20260506114637 | 5 | 0.0 | 1.6 | 0.00 | 0.00 | 0.00 | 64 | 1019.4 | |
| 20260506113617 | 5 | 0.0 | 0.0 | 0.00 | 0.00 | 0.00 | 63 | 1019.4 | |
| 20260506112617 | 5 | 0.0 | 0.0 | 0.00 | 0.00 | 0.00 | 63 | 1019.3 | |
| 20260506111617 | 5 | 0.0 | 0.0 | 0.00 | 0.00 | 0.00 | 63 | 1019.2 | |
| 20260506110617 | 5 | 0.0 | 0.0 | 0.00 | 0.00 | 0.00 | 64 | 1019.0 | |
| 20260506105617 | 5 | 0.0 | 0.0 | 0.00 | 0.00 | 0.00 | 64 | 1018.9 | |
| 20260506104617 | 5 | 0.0 | 0.0 | 0.00 | 0.00 | 0.00 | 64 | 1018.9 |